Time;durP1;ratioP1;P1;durP2;ratioP2;P2;SDS_P1;SDS_P2;PMS_P1;PMS_P2;Temp;Humidity;BMP_temperature;BMP_pressure;BME280_temperature;BME280_humidity;BME280_pressure;Samples;Min_cycle;Max_cycle;Signal;HPM_P1;HPM_P2
2023/04/03 00:01:28;;;;;;;3.42;2.25;;;4.60;95.50;;;;;;5032442;28;20017;-76
2023/04/03 00:03:54;;;;;;;5.05;1.42;;;4.70;95.10;;;;;;5032548;28;20053;-76
2023/04/03 00:06:20;;;;;;;6.63;2.88;;;4.70;95.10;;;;;;5014529;28;20079;-76
2023/04/03 00:08:46;;;;;;;1.80;1.48;;;4.70;94.90;;;;;;5013447;28;20041;-76
2023/04/03 00:11:12;;;;;;;3.47;1.85;;;4.70;94.70;;;;;;5014743;28;20034;-76
2023/04/03 00:13:39;;;;;;;2.67;1.45;;;4.70;94.40;;;;;;5014820;28;20436;-76
2023/04/03 00:16:05;;;;;;;3.33;2.00;;;4.80;94.20;;;;;;5032072;28;20025;-75
2023/04/03 00:18:31;;;;;;;1.73;1.40;;;4.70;93.80;;;;;;5031769;28;20052;-76
2023/04/03 00:20:57;;;;;;;2.08;1.50;;;4.80;93.70;;;;;;5014757;28;20025;-77
2023/04/03 00:23:23;;;;;;;1.73;1.48;;;4.80;93.50;;;;;;5014469;28;20029;-77
2023/04/03 00:25:49;;;;;;;1.85;1.45;;;4.80;93.40;;;;;;5031959;28;20396;-77
2023/04/03 00:28:15;;;;;;;3.53;1.55;;;4.80;93.50;;;;;;5014148;28;20033;-76
2023/04/03 00:30:40;;;;;;;1.95;1.55;;;4.80;93.40;;;;;;5015352;28;20116;-77
2023/04/03 00:33:06;;;;;;;1.25;1.15;;;4.80;93.20;;;;;;5023212;28;20060;-76
2023/04/03 00:35:34;;;;;;;1.88;1.00;;;4.80;93.30;;;;;;5038472;28;20026;-77
2023/04/03 00:38:00;;;;;;;1.55;1.25;;;4.80;93.20;;;;;;5022775;28;20021;-77
2023/04/03 00:40:27;;;;;;;2.80;1.20;;;4.80;93.10;;;;;;5022506;28;20460;-76
2023/04/03 00:42:57;;;;;;;1.85;1.25;;;4.80;92.90;;;;;;5037843;28;20018;-76
2023/04/03 00:45:37;;;;;;;1.33;1.10;;;4.80;93.10;;;;;;5014243;28;20057;-76
2023/04/03 00:48:07;;;;;;;1.85;0.95;;;4.80;93.30;;;;;;5013888;28;20079;-77
2023/04/03 00:50:36;;;;;;;2.92;1.23;;;4.90;92.70;;;;;;5032127;28;20096;-76
2023/04/03 00:53:03;;;;;;;1.02;0.90;;;4.90;92.70;;;;;;5014216;28;20030;-76
2023/04/03 00:55:30;;;;;;;1.10;1.00;;;4.90;93.00;;;;;;5013858;28;20026;-76
2023/04/03 00:57:56;;;;;;;1.75;1.05;;;4.90;92.80;;;;;;5013876;28;20028;-77
2023/04/03 01:00:24;;;;;;;0.80;0.80;;;4.90;92.50;;;;;;5014103;28;20056;-77
2023/04/03 01:02:51;;;;;;;3.10;1.25;;;4.90;92.60;;;;;;5031907;28;20112;-76
2023/04/03 01:05:18;;;;;;;1.30;1.10;;;4.90;92.50;;;;;;5013809;28;20396;-76
2023/04/03 01:07:45;;;;;;;1.10;1.10;;;4.90;92.40;;;;;;5031335;28;20079;-76
2023/04/03 01:10:14;;;;;;;1.25;1.02;;;4.90;92.00;;;;;;5014008;28;20037;-76
2023/04/03 01:12:42;;;;;;;1.00;0.60;;;4.90;92.10;;;;;;5014273;28;20029;-77
2023/04/03 01:15:12;;;;;;;0.50;0.50;;;5.00;91.80;;;;;;5031401;28;20224;-75
2023/04/03 01:17:58;;;;;;;1.00;0.90;;;4.90;91.50;;;;;;5031614;28;20037;-75
2023/04/03 01:20:52;;;;;;;0.98;0.60;;;5.00;91.40;;;;;;5014200;28;20022;-76
2023/04/03 01:23:28;;;;;;;1.17;0.50;;;4.90;91.40;;;;;;5013909;28;20079;-76
2023/04/03 01:25:56;;;;;;;0.70;0.70;;;5.00;91.20;;;;;;5031297;28;20366;-76
2023/04/03 01:28:28;;;;;;;0.93;0.75;;;5.00;91.20;;;;;;5013826;28;20068;-76
2023/04/03 01:31:06;;;;;;;0.63;0.63;;;5.00;91.40;;;;;;5014158;28;20485;-76
2023/04/03 01:33:32;;;;;;;2.17;0.90;;;5.00;91.10;;;;;;5031547;28;20033;-76
2023/04/03 01:35:58;;;;;;;0.93;0.70;;;5.00;91.10;;;;;;5011816;28;20061;-76
2023/04/03 01:38:24;;;;;;;1.13;0.60;;;5.00;91.10;;;;;;5013496;28;20049;-76
2023/04/03 01:40:49;;;;;;;0.63;0.63;;;5.00;90.60;;;;;;5014147;28;20544;-76
2023/04/03 01:43:15;;;;;;;0.82;0.77;;;5.00;90.80;;;;;;5031506;28;20597;-76
2023/04/03 01:45:41;;;;;;;1.20;0.73;;;5.00;91.20;;;;;;5013563;28;20473;-76
2023/04/03 01:48:06;;;;;;;0.98;0.57;;;5.10;91.00;;;;;;5033446;28;20021;-76
2023/04/03 01:50:32;;;;;;;0.85;0.50;;;5.10;90.40;;;;;;5035174;28;20030;-76
2023/04/03 01:52:58;;;;;;;0.98;0.77;;;5.10;90.80;;;;;;5034919;28;20104;-77
2023/04/03 01:55:23;;;;;;;0.63;0.40;;;5.10;90.60;;;;;;5016845;28;20076;-77
2023/04/03 01:57:49;;;;;;;0.88;0.60;;;5.10;90.60;;;;;;5034551;28;20028;-77
2023/04/03 02:00:16;;;;;;;0.70;0.60;;;5.10;90.70;;;;;;5016962;28;20313;-76
2023/04/03 02:02:41;;;;;;;0.65;0.60;;;5.10;90.40;;;;;;5017263;28;20051;-76
2023/04/03 02:05:08;;;;;;;0.57;0.50;;;5.10;90.50;;;;;;5016835;28;20486;-76
2023/04/03 02:07:33;;;;;;;0.55;0.52;;;5.10;90.40;;;;;;5043799;28;20029;-77
2023/04/03 02:09:59;;;;;;;3.58;0.95;;;5.10;90.50;;;;;;5051610;28;20060;-77
2023/04/03 02:12:25;;;;;;;0.75;0.60;;;5.10;90.50;;;;;;5033939;28;20034;-77
2023/04/03 02:14:50;;;;;;;0.52;0.50;;;5.10;91.00;;;;;;5025208;28;20036;-76
2023/04/03 02:17:16;;;;;;;0.60;0.60;;;5.20;90.50;;;;;;5034295;28;20028;-76
2023/04/03 02:19:41;;;;;;;0.60;0.60;;;5.10;90.40;;;;;;5034542;28;20017;-77
2023/04/03 02:22:07;;;;;;;2.42;0.70;;;5.10;90.20;;;;;;5016880;28;20120;-76
2023/04/03 02:24:33;;;;;;;2.28;0.57;;;5.10;90.40;;;;;;5032443;28;20061;-76
2023/04/03 02:26:59;;;;;;;0.73;0.70;;;5.10;90.40;;;;;;5016726;28;20025;-76
2023/04/03 02:29:25;;;;;;;0.57;0.50;;;5.10;90.30;;;;;;5033871;28;20029;-77
2023/04/03 02:31:51;;;;;;;0.68;0.68;;;5.10;90.40;;;;;;5016589;28;20116;-76
2023/04/03 02:34:17;;;;;;;1.10;0.88;;;5.20;90.30;;;;;;5016409;28;20025;-76
2023/04/03 02:36:43;;;;;;;1.52;0.70;;;5.10;90.30;;;;;;5016064;28;20424;-76
2023/04/03 02:39:09;;;;;;;1.73;0.80;;;5.20;90.40;;;;;;5033854;28;20093;-77
2023/04/03 02:41:35;;;;;;;1.02;0.60;;;5.20;90.40;;;;;;5016516;28;20032;-76
2023/04/03 02:44:01;;;;;;;0.60;0.55;;;5.20;90.70;;;;;;5016564;28;20029;-76
2023/04/03 02:46:27;;;;;;;0.63;0.38;;;5.20;90.40;;;;;;5016113;28;20030;-76
2023/04/03 02:48:53;;;;;;;0.90;0.73;;;5.10;90.60;;;;;;5033527;28;20032;-76
2023/04/03 02:51:18;;;;;;;0.45;0.43;;;5.10;90.50;;;;;;5016330;28;20566;-76
2023/04/03 02:53:44;;;;;;;0.82;0.50;;;5.10;90.80;;;;;;5033960;28;20025;-76
2023/04/03 02:56:10;;;;;;;0.55;0.50;;;5.10;90.40;;;;;;5033820;28;20389;-77
2023/04/03 02:58:35;;;;;;;1.25;0.63;;;5.10;90.60;;;;;;5032717;28;20074;-76
2023/04/03 03:01:01;;;;;;;0.77;0.77;;;5.10;90.20;;;;;;5033770;28;20029;-76
2023/04/03 03:03:27;;;;;;;1.35;0.57;;;5.20;90.30;;;;;;5016073;28;20371;-77
2023/04/03 03:06:22;;;;;;;1.13;0.90;;;5.10;90.40;;;;;;5033319;28;20034;-76
2023/04/03 03:08:48;;;;;;;1.00;0.50;;;5.10;90.70;;;;;;5036328;22;20061;-77
2023/04/03 03:11:13;;;;;;;1.33;1.20;;;5.10;90.50;;;;;;5018292;28;20477;-79
2023/04/03 03:13:39;;;;;;;1.10;0.90;;;5.10;90.80;;;;;;5036285;28;20429;-78
2023/04/03 03:16:05;;;;;;;0.75;0.75;;;5.10;90.70;;;;;;5035328;28;20489;-77
2023/04/03 03:18:31;;;;;;;1.05;0.63;;;5.10;91.10;;;;;;5017760;28;20043;-78
2023/04/03 03:20:58;;;;;;;0.70;0.63;;;5.10;91.30;;;;;;5016735;28;20477;-78
2023/04/03 03:23:25;;;;;;;0.77;0.77;;;5.10;90.90;;;;;;5036062;28;20056;-79
2023/04/03 03:26:11;;;;;;;0.63;0.60;;;5.10;91.10;;;;;;5035423;28;20021;-78
2023/04/03 03:28:38;;;;;;;1.48;0.43;;;5.10;91.20;;;;;;5035323;28;20030;-76
2023/04/03 03:31:05;;;;;;;0.85;0.50;;;5.10;91.10;;;;;;5016460;28;20057;-79
2023/04/03 03:33:31;;;;;;;0.68;0.60;;;5.10;91.10;;;;;;5018122;28;20489;-78
2023/04/03 03:35:56;;;;;;;0.63;0.63;;;5.10;91.00;;;;;;5017645;28;20044;-78
2023/04/03 03:38:23;;;;;;;0.93;0.70;;;5.10;91.00;;;;;;5035889;28;20064;-77
2023/04/03 03:40:50;;;;;;;0.80;0.50;;;5.20;90.80;;;;;;5017202;28;20022;-77
2023/04/03 03:43:16;;;;;;;0.50;0.50;;;5.20;90.50;;;;;;5017784;28;20120;-77
2023/04/03 03:45:42;;;;;;;1.27;0.57;;;5.10;90.20;;;;;;5035199;28;20026;-77
2023/04/03 03:48:07;;;;;;;0.90;0.70;;;5.10;90.50;;;;;;5035409;28;20452;-77
2023/04/03 03:50:33;;;;;;;0.80;0.47;;;5.10;90.50;;;;;;5018035;28;20432;-78
2023/04/03 03:52:59;;;;;;;0.45;0.45;;;5.20;90.50;;;;;;5035569;28;20025;-78
2023/04/03 03:55:25;;;;;;;1.75;0.85;;;5.20;90.50;;;;;;5017524;28;20022;-77
2023/04/03 03:57:51;;;;;;;0.95;0.60;;;5.20;90.30;;;;;;5034890;28;20017;-78
2023/04/03 04:00:17;;;;;;;1.48;0.70;;;5.20;90.40;;;;;;5035463;28;20021;-78
2023/04/03 04:02:43;;;;;;;0.60;0.60;;;5.20;90.60;;;;;;5017485;28;20060;-79
2023/04/03 04:05:09;;;;;;;3.03;0.70;;;5.20;90.30;;;;;;5034928;28;20037;-81
2023/04/03 04:07:35;;;;;;;0.63;0.63;;;5.10;90.40;;;;;;5017124;28;20088;-77
2023/04/03 04:10:00;;;;;;;1.40;0.88;;;5.20;90.50;;;;;;5017514;28;20083;-78
2023/04/03 04:12:26;;;;;;;0.88;0.57;;;5.10;90.60;;;;;;5035155;28;20131;-77
2023/04/03 04:14:52;;;;;;;0.80;0.68;;;5.10;90.60;;;;;;5016114;28;20396;-77
2023/04/03 04:17:17;;;;;;;0.60;0.60;;;5.20;90.80;;;;;;5017301;28;20022;-79
2023/04/03 04:19:43;;;;;;;0.68;0.60;;;5.20;90.80;;;;;;5034822;28;20799;-79
2023/04/03 04:22:09;;;;;;;0.60;0.60;;;5.10;91.00;;;;;;5017318;28;20025;-77
2023/04/03 04:24:34;;;;;;;0.95;0.55;;;5.10;90.60;;;;;;5017362;28;20462;-79
2023/04/03 04:27:00;;;;;;;0.50;0.50;;;5.10;90.90;;;;;;5016932;28;20026;-77
2023/04/03 04:29:26;;;;;;;0.63;0.50;;;5.10;90.70;;;;;;5017528;28;20402;-78
2023/04/03 04:31:51;;;;;;;0.77;0.77;;;5.10;90.60;;;;;;5015710;28;20025;-78
2023/04/03 04:34:17;;;;;;;1.35;1.15;;;5.10;90.60;;;;;;5018077;28;20018;-78
2023/04/03 04:36:42;;;;;;;3.20;0.52;;;5.10;90.50;;;;;;5035000;28;20029;-79
2023/04/03 04:39:08;;;;;;;1.13;0.77;;;5.10;90.70;;;;;;5016730;28;20021;-79
2023/04/03 04:41:34;;;;;;;0.80;0.80;;;5.10;90.60;;;;;;5017041;28;20469;-77
2023/04/03 04:44:00;;;;;;;0.82;0.52;;;5.10;90.30;;;;;;5034961;28;20060;-77
2023/04/03 04:46:26;;;;;;;1.33;0.77;;;5.10;90.40;;;;;;5016234;28;20397;-78
2023/04/03 04:48:51;;;;;;;1.77;0.90;;;5.10;90.50;;;;;;5015991;28;20032;-78
2023/04/03 04:51:17;;;;;;;2.47;1.50;;;5.10;90.10;;;;;;5034779;28;20024;-78
2023/04/03 04:53:43;;;;;;;2.22;0.80;;;5.10;90.40;;;;;;5033852;28;20021;-77
2023/04/03 04:56:09;;;;;;;3.35;0.88;;;5.10;90.30;;;;;;5033506;28;20033;-78
2023/04/03 04:58:35;;;;;;;1.85;1.40;;;5.10;90.50;;;;;;5015991;28;20022;-77
2023/04/03 05:01:06;;;;;;;1.65;1.40;;;5.10;89.80;;;;;;5014766;28;20022;-76
2023/04/03 05:03:32;;;;;;;1.20;0.80;;;5.30;90.20;;;;;;5033485;28;20163;-77
2023/04/03 05:05:59;;;;;;;0.70;0.70;;;5.20;89.10;;;;;;5013794;28;20025;-77
2023/04/03 05:08:25;;;;;;;1.00;0.85;;;5.20;89.10;;;;;;5031583;28;20021;-77
2023/04/03 05:10:50;;;;;;;1.33;1.23;;;5.20;89.30;;;;;;5032216;28;20053;-77
2023/04/03 05:13:16;;;;;;;0.88;0.68;;;5.20;88.80;;;;;;5014921;28;20496;-77
2023/04/03 05:15:42;;;;;;;1.92;0.73;;;5.20;89.00;;;;;;5014558;28;20490;-76
2023/04/03 05:18:08;;;;;;;0.93;0.90;;;5.20;89.10;;;;;;5014430;28;20021;-77
2023/04/03 05:20:34;;;;;;;2.15;1.33;;;5.20;89.50;;;;;;5032836;28;20497;-78
2023/04/03 05:23:00;;;;;;;0.70;0.70;;;5.20;89.60;;;;;;5035413;28;20018;-78
2023/04/03 05:25:26;;;;;;;1.55;0.90;;;5.20;90.00;;;;;;5036387;28;20095;-78
2023/04/03 05:27:52;;;;;;;1.02;0.93;;;5.30;90.00;;;;;;5036703;28;20060;-77
2023/04/03 05:30:18;;;;;;;2.15;0.90;;;5.30;90.00;;;;;;5019336;28;20033;-79
2023/04/03 05:32:44;;;;;;;2.70;0.82;;;5.20;90.30;;;;;;5036655;28;20026;-79
2023/04/03 05:35:10;;;;;;;1.00;0.80;;;5.30;90.40;;;;;;5036665;28;20022;-79
2023/04/03 05:37:36;;;;;;;1.05;0.93;;;5.30;90.40;;;;;;5018595;28;20046;-78
2023/04/03 05:40:06;;;;;;;1.77;1.17;;;5.30;90.70;;;;;;5036483;28;20014;-79
2023/04/03 05:42:32;;;;;;;1.05;0.95;;;5.40;90.60;;;;;;5037057;28;20078;-77
2023/04/03 05:44:58;;;;;;;1.25;1.17;;;5.40;91.00;;;;;;5036643;28;20077;-77
2023/04/03 05:47:24;;;;;;;1.75;1.10;;;5.40;90.90;;;;;;5035673;28;20110;-77
2023/04/03 05:49:49;;;;;;;1.13;1.13;;;5.40;90.80;;;;;;5037013;28;20478;-78
2023/04/03 05:52:18;;;;;;;1.67;0.85;;;5.40;90.70;;;;;;5018540;28;20032;-77
2023/04/03 05:54:46;;;;;;;3.08;0.90;;;5.40;91.00;;;;;;4999423;28;20038;-77
2023/04/03 05:57:12;;;;;;;1.73;0.95;;;5.40;90.50;;;;;;5017843;28;20018;-77
2023/04/03 05:59:37;;;;;;;2.38;1.30;;;5.40;90.90;;;;;;4998610;28;20024;-77
2023/04/03 06:02:03;;;;;;;1.10;0.82;;;5.40;90.80;;;;;;4999896;28;20061;-78
2023/04/03 06:04:29;;;;;;;1.60;0.65;;;5.40;90.90;;;;;;5015507;28;20485;-77
2023/04/03 06:06:57;;;;;;;3.28;0.88;;;5.40;90.20;;;;;;4999399;28;20053;-78
2023/04/03 06:09:26;;;;;;;3.28;1.00;;;5.40;90.20;;;;;;5016427;28;20053;-77
2023/04/03 06:11:52;;;;;;;1.17;0.95;;;5.40;90.30;;;;;;4999170;28;20117;-77
2023/04/03 06:14:18;;;;;;;1.17;0.88;;;5.40;90.10;;;;;;5016696;28;20100;-78
2023/04/03 06:16:45;;;;;;;1.73;1.00;;;5.40;90.60;;;;;;4998672;28;20033;-77
2023/04/03 06:19:11;;;;;;;0.80;0.80;;;5.40;90.80;;;;;;5016390;28;20029;-78
2023/04/03 06:21:37;;;;;;;1.20;1.10;;;5.40;90.80;;;;;;5017553;28;20084;-79
2023/04/03 06:24:04;;;;;;;1.40;1.10;;;5.50;90.90;;;;;;5017133;28;20781;-77
2023/04/03 06:26:30;;;;;;;4.30;1.20;;;5.70;91.00;;;;;;4999467;28;20510;-79
2023/04/03 06:28:55;;;;;;;2.33;1.63;;;5.80;90.70;;;;;;5016644;28;20032;-79
2023/04/03 06:31:22;;;;;;;1.90;1.30;;;5.80;90.20;;;;;;4999861;28;20497;-77
2023/04/03 06:33:47;;;;;;;2.20;1.70;;;5.70;89.70;;;;;;4997349;28;20441;-77
2023/04/03 06:36:13;;;;;;;6.25;1.50;;;5.80;90.30;;;;;;5015273;28;20083;-77
2023/04/03 06:38:39;;;;;;;1.25;1.15;;;5.80;90.00;;;;;;5016118;28;20367;-78
2023/04/03 06:41:05;;;;;;;1.10;1.02;;;5.80;89.40;;;;;;4998703;28;20491;-78
2023/04/03 06:43:31;;;;;;;1.15;1.00;;;5.90;89.90;;;;;;5016782;28;20105;-77
2023/04/03 06:45:57;;;;;;;1.60;1.20;;;6.00;89.50;;;;;;5015976;28;20570;-77
2023/04/03 06:48:23;;;;;;;2.38;1.20;;;6.20;89.60;;;;;;4997850;28;20038;-77
2023/04/03 06:50:48;;;;;;;2.03;1.10;;;6.20;87.80;;;;;;5016478;28;20506;-75
2023/04/03 06:53:14;;;;;;;2.25;1.00;;;6.30;87.70;;;;;;4998353;28;20026;-77
2023/04/03 06:55:41;;;;;;;1.27;0.90;;;6.40;88.00;;;;;;4998420;28;20030;-76
2023/04/03 06:58:07;;;;;;;0.90;0.77;;;6.50;87.30;;;;;;4996710;28;20033;-76
2023/04/03 07:00:32;;;;;;;2.75;0.98;;;6.60;86.80;;;;;;4996440;28;20026;-76
2023/04/03 07:02:58;;;;;;;1.02;0.77;;;6.40;85.00;;;;;;5014574;28;20025;-76
2023/04/03 07:05:25;;;;;;;1.75;0.88;;;6.30;84.10;;;;;;5013917;28;20132;-76
2023/04/03 07:07:51;;;;;;;1.30;1.05;;;6.40;84.80;;;;;;5013705;28;20029;-76
2023/04/03 07:10:17;;;;;;;1.48;0.95;;;6.50;85.00;;;;;;5013733;28;20079;-76
2023/04/03 07:12:42;;;;;;;0.80;0.80;;;6.60;85.30;;;;;;5012597;28;20026;-76
2023/04/03 07:15:09;;;;;;;1.48;0.90;;;6.80;82.90;;;;;;5013842;28;20034;-76
2023/04/03 07:17:35;;;;;;;1.23;1.08;;;6.90;84.10;;;;;;5013872;28;20022;-76
2023/04/03 07:20:01;;;;;;;3.20;1.00;;;7.00;81.80;;;;;;4996415;28;20033;-77
2023/04/03 07:22:27;;;;;;;2.50;1.05;;;7.10;81.30;;;;;;4996301;28;20026;-76
2023/04/03 07:24:53;;;;;;;1.42;0.80;;;7.00;81.00;;;;;;5013612;28;20188;-76
2023/04/03 07:27:19;;;;;;;0.80;0.80;;;6.90;81.40;;;;;;4995855;28;20080;-76
2023/04/03 07:29:47;;;;;;;2.30;1.40;;;6.60;80.60;;;;;;5013613;28;20486;-77
2023/04/03 07:32:13;;;;;;;2.85;0.88;;;6.50;79.50;;;;;;4994968;28;20080;-77
2023/04/03 07:34:39;;;;;;;1.48;1.10;;;6.50;81.10;;;;;;5013394;28;20026;-78
2023/04/03 07:37:06;;;;;;;1.35;0.90;;;6.60;80.90;;;;;;5014112;28;20025;-76
2023/04/03 07:39:32;;;;;;;2.90;1.77;;;6.70;81.20;;;;;;5013455;28;20364;-76
2023/04/03 07:41:57;;;;;;;2.20;1.17;;;6.70;81.90;;;;;;4995423;28;20025;-78
2023/04/03 07:44:23;;;;;;;0.88;0.82;;;6.90;81.80;;;;;;5012363;28;20498;-76
2023/04/03 07:46:50;;;;;;;1.92;1.20;;;7.00;81.10;;;;;;4995725;28;20398;-77
2023/04/03 07:49:17;;;;;;;1.40;1.05;;;7.00;82.00;;;;;;4995374;28;20117;-77
2023/04/03 07:51:43;;;;;;;3.65;1.23;;;6.90;81.10;;;;;;5013059;28;20018;-77
2023/04/03 07:54:09;;;;;;;1.27;1.13;;;7.00;82.20;;;;;;4995499;28;20037;-76
2023/04/03 07:56:35;;;;;;;1.52;1.27;;;6.80;80.80;;;;;;4995607;28;20025;-76
2023/04/03 07:59:00;;;;;;;2.55;1.10;;;6.70;80.70;;;;;;4995525;28;20541;-76
2023/04/03 08:01:26;;;;;;;2.95;0.98;;;6.70;81.40;;;;;;5013117;28;20026;-76
2023/04/03 08:03:52;;;;;;;1.30;1.20;;;6.60;83.00;;;;;;5013870;28;20092;-76
2023/04/03 08:06:17;;;;;;;2.33;1.05;;;6.70;83.40;;;;;;4995245;28;20080;-76
2023/04/03 08:08:43;;;;;;;2.70;1.20;;;6.70;81.90;;;;;;5013468;28;20030;-76
2023/04/03 08:11:10;;;;;;;1.58;1.00;;;6.70;80.80;;;;;;4996205;28;20034;-75
2023/04/03 08:13:36;;;;;;;1.27;0.90;;;6.60;80.10;;;;;;5013825;28;20022;-78
2023/04/03 08:16:15;;;;;;;2.05;1.00;;;6.60;80.60;;;;;;4996306;28;20397;-76
2023/04/03 08:18:40;;;;;;;0.98;0.70;;;6.30;78.70;;;;;;4995215;28;20049;-77
2023/04/03 08:21:08;;;;;;;1.85;1.00;;;6.30;79.60;;;;;;5012628;28;20482;-77
2023/04/03 08:23:33;;;;;;;1.13;0.93;;;6.30;80.50;;;;;;5027388;28;20022;-77
2023/04/03 08:25:59;;;;;;;2.17;1.10;;;6.50;80.90;;;;;;5032241;28;20029;-77
2023/04/03 08:28:25;;;;;;;3.22;1.10;;;6.50;79.30;;;;;;5026450;28;20060;-77
2023/04/03 08:30:51;;;;;;;1.42;1.00;;;6.70;78.10;;;;;;5001390;28;20026;-79
2023/04/03 08:33:16;;;;;;;2.22;0.82;;;7.00;77.30;;;;;;5004875;28;20033;-79
2023/04/03 08:35:42;;;;;;;0.82;0.60;;;7.00;74.70;;;;;;5021762;28;20482;-77
2023/04/03 08:38:09;;;;;;;1.83;1.10;;;6.90;73.30;;;;;;5019999;28;20026;-75
2023/04/03 08:40:34;;;;;;;0.88;0.88;;;6.80;75.30;;;;;;5014223;28;20085;-79
2023/04/03 08:43:06;;;;;;;2.63;1.80;;;6.90;78.30;;;;;;4999620;28;20513;-78
2023/04/03 08:45:52;;;;;;;3.20;1.40;;;7.00;80.30;;;;;;5016723;28;20033;-79
2023/04/03 08:48:50;;;;;;;2.72;1.10;;;6.90;79.90;;;;;;4998606;28;20034;-79
2023/04/03 08:51:20;;;;;;;1.40;1.30;;;6.80;79.20;;;;;;4957812;28;20642;-79
2023/04/03 08:54:03;;;;;;;1.73;1.42;;;6.80;80.80;;;;;;5000380;28;20040;-79
2023/04/03 08:56:31;;;;;;;1.48;0.75;;;6.80;81.70;;;;;;4997919;28;20122;-79
2023/04/03 08:59:12;;;;;;;2.80;1.40;;;6.50;82.30;;;;;;5003231;28;20022;-77
2023/04/03 09:01:41;;;;;;;2.20;1.00;;;6.30;83.60;;;;;;5016995;28;20030;-79
2023/04/03 09:04:17;;;;;;;2.08;1.30;;;6.00;84.40;;;;;;5003476;28;20022;-77
2023/04/03 09:06:52;;;;;;;1.17;0.82;;;5.90;85.00;;;;;;5003228;28;20578;-80
2023/04/03 09:09:36;;;;;;;2.78;1.88;;;5.90;85.20;;;;;;5003139;28;20042;-79
2023/04/03 09:12:43;;;;;;;3.97;1.88;;;5.80;84.80;;;;;;5001555;28;20494;-78
2023/04/03 09:15:24;;;;;;;2.63;1.48;;;5.90;86.00;;;;;;4930834;28;20047;-77
2023/04/03 09:17:56;;;;;;;2.67;1.40;;;5.70;83.80;;;;;;5017496;28;20057;-77
2023/04/03 09:20:35;;;;;;;2.85;1.55;;;5.70;84.90;;;;;;5000458;28;20022;-79
2023/04/03 09:23:01;;;;;;;3.80;1.58;;;5.60;83.80;;;;;;5018087;28;20032;-77
2023/04/03 09:25:34;;;;;;;2.85;1.45;;;5.60;83.60;;;;;;5000127;28;20034;-77
2023/04/03 09:28:02;;;;;;;1.95;1.25;;;5.50;84.40;;;;;;5000284;28;20022;-77
2023/04/03 09:30:28;;;;;;;1.50;0.90;;;5.60;84.60;;;;;;5000312;28;20113;-77
2023/04/03 09:32:56;;;;;;;2.50;1.35;;;5.70;83.30;;;;;;5000923;28;20056;-78
2023/04/03 09:35:32;;;;;;;1.38;1.00;;;5.70;78.40;;;;;;5000406;28;20022;-78
2023/04/03 09:38:22;;;;;;;0.68;0.68;;;5.50;76.00;;;;;;5018759;28;20022;-77
2023/04/03 09:40:50;;;;;;;0.77;0.68;;;5.60;75.50;;;;;;4995995;28;20025;-79
2023/04/03 09:43:28;;;;;;;0.93;0.70;;;5.70;76.30;;;;;;5018192;28;20030;-78
2023/04/03 09:45:55;;;;;;;3.22;0.88;;;5.80;77.40;;;;;;4999292;28;20030;-77
2023/04/03 09:48:23;;;;;;;2.10;1.02;;;5.90;78.10;;;;;;4998933;28;20026;-77
2023/04/03 09:50:55;;;;;;;2.28;1.00;;;5.80;77.30;;;;;;4999270;28;20026;-77
2023/04/03 09:53:40;;;;;;;1.48;0.73;;;5.70;77.90;;;;;;4999181;28;20030;-77
2023/04/03 09:56:22;;;;;;;3.27;1.70;;;5.70;78.50;;;;;;4998418;28;20084;-77
2023/04/03 09:58:52;;;;;;;1.63;1.40;;;5.70;78.80;;;;;;4998488;28;20291;-78
2023/04/03 10:01:27;;;;;;;3.58;1.23;;;5.80;78.40;;;;;;5017008;28;20014;-77
2023/04/03 10:04:22;;;;;;;1.67;1.02;;;6.00;77.80;;;;;;5016851;28;20394;-77
2023/04/03 10:06:50;;;;;;;1.85;1.25;;;5.90;76.60;;;;;;4999531;28;20053;-78
2023/04/03 10:09:30;;;;;;;2.72;1.15;;;5.90;76.80;;;;;;4996401;28;20038;-77
2023/04/03 10:12:12;;;;;;;1.48;0.98;;;6.10;75.60;;;;;;5016547;28;20026;-77
2023/04/03 10:14:41;;;;;;;0.82;0.82;;;6.30;76.60;;;;;;5015912;28;20026;-78
2023/04/03 10:17:24;;;;;;;1.40;1.08;;;6.50;76.30;;;;;;5015980;28;20101;-77
2023/04/03 10:20:11;;;;;;;1.77;0.93;;;6.40;75.20;;;;;;4998697;28;20026;-77
2023/04/03 10:22:56;;;;;;;1.83;0.70;;;6.40;75.20;;;;;;5016444;28;20506;-77
2023/04/03 10:25:46;;;;;;;1.08;0.80;;;6.90;77.80;;;;;;4997522;28;20048;-78
2023/04/03 10:28:23;;;;;;;1.17;0.85;;;6.80;71.90;;;;;;4997726;28;20516;-77
2023/04/03 10:31:13;;;;;;;1.17;0.82;;;7.00;73.30;;;;;;5015720;28;20463;-77
2023/04/03 10:34:04;;;;;;;0.60;0.60;;;7.10;71.50;;;;;;5015612;28;20076;-77
2023/04/03 10:36:38;;;;;;;1.02;0.90;;;7.40;71.50;;;;;;5014039;28;20026;-77
2023/04/03 10:39:28;;;;;;;0.93;0.80;;;7.30;69.70;;;;;;4997854;28;20029;-77
2023/04/03 10:41:59;;;;;;;2.13;0.80;;;7.10;69.00;;;;;;5003618;28;20034;-77
2023/04/03 10:44:36;;;;;;;1.13;0.70;;;6.90;70.20;;;;;;4997506;28;20057;-78
2023/04/03 10:47:08;;;;;;;2.42;0.75;;;6.90;69.60;;;;;;4997648;28;20028;-77
2023/04/03 10:49:49;;;;;;;1.00;0.75;;;6.90;70.20;;;;;;4997454;28;20022;-78
2023/04/03 10:52:21;;;;;;;2.90;0.88;;;7.00;71.40;;;;;;4997830;28;20112;-77
2023/04/03 10:55:01;;;;;;;0.70;0.70;;;6.70;70.80;;;;;;5014502;28;20032;-78
2023/04/03 10:57:30;;;;;;;1.65;0.90;;;6.80;71.60;;;;;;4996968;28;20049;-77
2023/04/03 11:00:00;;;;;;;1.42;1.00;;;6.80;70.50;;;;;;5014844;28;20053;-78
2023/04/03 11:03:05;;;;;;;1.27;0.88;;;7.00;72.70;;;;;;4996417;28;20060;-77
2023/04/03 11:05:31;;;;;;;1.58;1.17;;;7.50;72.20;;;;;;4935008;29;20039;-78
2023/04/03 11:08:02;;;;;;;2.33;0.75;;;7.30;70.60;;;;;;4986480;28;20402;-77
2023/04/03 11:10:49;;;;;;;1.45;1.17;;;7.10;69.70;;;;;;5018081;28;20057;-77
2023/04/03 11:13:35;;;;;;;3.30;0.98;;;7.00;71.60;;;;;;5024966;28;20049;-76
2023/04/03 11:16:03;;;;;;;0.93;0.90;;;7.00;70.80;;;;;;4992410;28;20406;-77
2023/04/03 11:18:39;;;;;;;2.08;0.73;;;6.90;73.30;;;;;;5025884;28;20022;-78
2023/04/03 11:21:21;;;;;;;2.17;1.27;;;7.00;72.40;;;;;;5016843;28;20029;-78
2023/04/03 11:23:47;;;;;;;2.80;1.38;;;7.00;71.20;;;;;;4999508;28;20109;-80
2023/04/03 11:26:28;;;;;;;0.77;0.77;;;7.20;71.50;;;;;;5016593;28;20145;-78
2023/04/03 11:28:58;;;;;;;1.00;0.85;;;7.30;71.40;;;;;;5016998;28;20049;-78
2023/04/03 11:31:31;;;;;;;1.48;0.90;;;7.50;73.10;;;;;;5016958;28;20041;-77
2023/04/03 11:34:15;;;;;;;1.67;1.10;;;7.90;68.00;;;;;;5016551;28;20022;-77
2023/04/03 11:36:47;;;;;;;2.83;0.90;;;8.00;69.40;;;;;;5014506;28;20030;-78
2023/04/03 11:39:28;;;;;;;3.63;0.95;;;8.10;67.90;;;;;;4996451;28;20022;-77
2023/04/03 11:41:55;;;;;;;3.10;0.90;;;8.10;68.80;;;;;;5015058;28;20026;-78
2023/04/03 11:44:37;;;;;;;1.10;0.70;;;8.00;65.30;;;;;;5014845;28;20018;-76
2023/04/03 11:47:04;;;;;;;2.85;1.75;;;7.70;63.40;;;;;;4998201;28;20029;-75
2023/04/03 11:49:55;;;;;;;1.27;0.80;;;7.70;62.70;;;;;;5025359;28;20489;-76
2023/04/03 11:52:39;;;;;;;1.52;1.23;;;8.20;66.80;;;;;;5014676;28;20033;-75
2023/04/03 11:55:23;;;;;;;1.13;0.75;;;8.20;66.70;;;;;;4999138;28;20027;-75
2023/04/03 11:57:57;;;;;;;1.42;0.90;;;8.10;66.00;;;;;;5013398;28;20471;-76
2023/04/03 12:00:50;;;;;;;4.57;0.93;;;7.80;64.70;;;;;;5030625;28;20033;-75
2023/04/03 12:06:17;;;;;;;4.32;1.45;;;7.40;65.80;;;;;;5019187;28;20108;-74
2023/04/03 12:08:46;;;;;;;1.65;0.75;;;7.30;66.70;;;;;;5012187;28;20533;-75
2023/04/03 12:11:11;;;;;;;1.67;0.90;;;7.30;67.50;;;;;;4995317;28;20033;-76
2023/04/03 12:13:40;;;;;;;1.30;0.77;;;7.10;65.80;;;;;;5018405;28;20481;-75
2023/04/03 12:16:25;;;;;;;1.67;0.63;;;7.10;65.50;;;;;;5028660;28;20025;-75
2023/04/03 12:18:53;;;;;;;1.75;1.02;;;7.20;65.10;;;;;;5012424;28;20018;-75
2023/04/03 12:21:32;;;;;;;3.08;1.25;;;7.10;65.30;;;;;;4995062;28;20064;-74
2023/04/03 12:24:10;;;;;;;1.08;0.85;;;7.30;67.10;;;;;;5012663;28;20052;-74
2023/04/03 12:27:19;;;;;;;1.05;0.98;;;7.60;66.40;;;;;;4994765;28;20036;-74
2023/04/03 12:30:03;;;;;;;1.90;0.95;;;7.70;65.70;;;;;;5012439;28;20033;-74
2023/04/03 12:33:05;;;;;;;2.53;1.05;;;7.90;65.80;;;;;;5012454;28;20029;-73
2023/04/03 12:35:43;;;;;;;1.40;0.65;;;7.60;64.50;;;;;;5001913;28;20091;-74
2023/04/03 12:38:33;;;;;;;2.08;1.02;;;7.40;64.20;;;;;;5012160;28;20018;-73
2023/04/03 12:41:43;;;;;;;2.30;1.00;;;7.50;65.80;;;;;;4994680;28;20018;-75
2023/04/03 12:44:19;;;;;;;1.77;1.00;;;7.80;67.40;;;;;;5009119;28;20109;-74
2023/04/03 12:46:51;;;;;;;0.60;0.60;;;7.90;64.40;;;;;;5012017;28;20418;-74
2023/04/03 12:49:29;;;;;;;1.65;1.02;;;7.70;63.10;;;;;;5011930;28;20036;-74
2023/04/03 12:51:55;;;;;;;0.68;0.60;;;7.50;62.70;;;;;;5012338;28;20033;-75
2023/04/03 12:54:30;;;;;;;1.13;0.98;;;7.40;62.50;;;;;;5012381;28;20029;-75
2023/04/03 12:57:23;;;;;;;17.33;7.30;;;7.60;63.60;;;;;;4994524;28;20032;-74
2023/04/03 12:59:49;;;;;;;7.60;3.08;;;7.90;63.50;;;;;;5012358;28;20022;-75
2023/04/03 13:02:30;;;;;;;3.08;1.42;;;8.00;62.20;;;;;;5000054;28;20030;-74
2023/04/03 13:05:05;;;;;;;1.27;1.17;;;8.10;60.90;;;;;;5013622;28;20033;-74
2023/04/03 13:07:34;;;;;;;1.48;1.30;;;7.80;61.20;;;;;;5026005;28;20025;-74
2023/04/03 13:10:22;;;;;;;3.03;1.58;;;7.80;62.40;;;;;;5026536;28;20045;-74
2023/04/03 13:12:54;;;;;;;7.60;2.83;;;7.90;62.20;;;;;;5012322;28;20029;-74
2023/04/03 13:15:40;;;;;;;2.30;1.98;;;7.80;61.00;;;;;;5031320;28;20022;-74
2023/04/03 13:18:20;;;;;;;2.53;1.50;;;7.90;60.60;;;;;;5031039;28;20014;-74